Pottersville, New York
Current Conditions -  °F | °C
As of 7:53 PM on Monday 20 Oct 2014 (Local Time) from KGFL Reporting Station
Overcast Overcast  
Wind Chill: 50°   Ceiling: 8000
Heat Index: 50°   Visibility: 10mi
Dew Point: 35°   Wind: 5mph
Humidity: 57%   Direction: 190°S
Pressure: 29.94"   Gusts: NA
Location:  43.73°N, 73.82°W
Report Text: KGFL 202353Z AUTO 19004KT 10SM OVC080 10/02 A2994 RMK AO2 SLP142 T01000017 10122 20100 50003
Loading
Personal Weather Stations






























Interactive Weather Map
Tropical Storm Tracking
New forecast layout! Learn more

10-Day Weather Forecast

Advertisements
Track Severe Weather on mobile